sensor_id;sensor_type;location;lat;lon;timestamp;pressure;altitude;pressure_sealevel;temperature;humidity
76054;BME280;64752;48.870;9.082;2023-10-31T00:02:07;96441.59;;;11.29;100.00
76054;BME280;64752;48.870;9.082;2023-10-31T00:04:33;96444.94;;;11.31;100.00
76054;BME280;64752;48.870;9.082;2023-10-31T00:06:58;96434.88;;;11.27;100.00
76054;BME280;64752;48.870;9.082;2023-10-31T00:09:23;96440.56;;;11.32;100.00
76054;BME280;64752;48.870;9.082;2023-10-31T00:11:49;96446.72;;;11.31;100.00
76054;BME280;64752;48.870;9.082;2023-10-31T00:14:14;96445.75;;;11.32;100.00
76054;BME280;64752;48.870;9.082;2023-10-31T00:16:40;96450.13;;;11.31;100.00
76054;BME280;64752;48.870;9.082;2023-10-31T00:19:05;96462.81;;;11.36;100.00
76054;BME280;64752;48.870;9.082;2023-10-31T00:21:30;96473.09;;;11.37;100.00
76054;BME280;64752;48.870;9.082;2023-10-31T00:23:56;96476.97;;;11.45;100.00
76054;BME280;64752;48.870;9.082;2023-10-31T00:26:21;96481.00;;;11.36;100.00
76054;BME280;64752;48.870;9.082;2023-10-31T00:28:46;96475.75;;;11.23;100.00
76054;BME280;64752;48.870;9.082;2023-10-31T00:31:11;96464.81;;;11.18;100.00
76054;BME280;64752;48.870;9.082;2023-10-31T00:33:39;96474.63;;;11.13;100.00
76054;BME280;64752;48.870;9.082;2023-10-31T00:36:05;96484.66;;;11.05;100.00
76054;BME280;64752;48.870;9.082;2023-10-31T00:38:31;96486.50;;;11.03;100.00
76054;BME280;64752;48.870;9.082;2023-10-31T00:40:56;96492.06;;;10.96;100.00
76054;BME280;64752;48.870;9.082;2023-10-31T00:43:22;96488.19;;;10.89;100.00
76054;BME280;64752;48.870;9.082;2023-10-31T00:45:47;96488.25;;;10.88;100.00
76054;BME280;64752;48.870;9.082;2023-10-31T00:48:13;96494.47;;;10.85;100.00
76054;BME280;64752;48.870;9.082;2023-10-31T00:50:38;96491.59;;;10.90;100.00
76054;BME280;64752;48.870;9.082;2023-10-31T00:53:03;96497.25;;;10.96;100.00
76054;BME280;64752;48.870;9.082;2023-10-31T00:55:29;96487.75;;;10.83;100.00
76054;BME280;64752;48.870;9.082;2023-10-31T00:57:54;96500.13;;;10.77;100.00
76054;BME280;64752;48.870;9.082;2023-10-31T01:00:20;96498.75;;;10.72;100.00
76054;BME280;64752;48.870;9.082;2023-10-31T01:02:45;96498.94;;;10.69;100.00
76054;BME280;64752;48.870;9.082;2023-10-31T01:05:11;96503.94;;;10.72;100.00
76054;BME280;64752;48.870;9.082;2023-10-31T01:07:36;96501.53;;;10.69;100.00
76054;BME280;64752;48.870;9.082;2023-10-31T01:10:04;96509.38;;;10.67;100.00
76054;BME280;64752;48.870;9.082;2023-10-31T01:12:30;96513.25;;;10.60;100.00
76054;BME280;64752;48.870;9.082;2023-10-31T01:14:56;96512.16;;;10.50;100.00
76054;BME280;64752;48.870;9.082;2023-10-31T01:17:21;96506.66;;;10.40;100.00
76054;BME280;64752;48.870;9.082;2023-10-31T01:19:47;96503.06;;;10.43;100.00
76054;BME280;64752;48.870;9.082;2023-10-31T01:22:12;96492.38;;;10.33;100.00
76054;BME280;64752;48.870;9.082;2023-10-31T01:24:37;96492.66;;;10.28;100.00
76054;BME280;64752;48.870;9.082;2023-10-31T01:27:03;96488.91;;;10.03;100.00
76054;BME280;64752;48.870;9.082;2023-10-31T01:29:29;96491.75;;;9.99;100.00
76054;BME280;64752;48.870;9.082;2023-10-31T01:31:54;96503.53;;;9.89;100.00
76054;BME280;64752;48.870;9.082;2023-10-31T01:34:19;96509.38;;;9.92;100.00
76054;BME280;64752;48.870;9.082;2023-10-31T01:36:45;96518.00;;;9.93;100.00
76054;BME280;64752;48.870;9.082;2023-10-31T01:39:10;96523.84;;;9.80;100.00
76054;BME280;64752;48.870;9.082;2023-10-31T01:41:35;96531.44;;;9.83;100.00
76054;BME280;64752;48.870;9.082;2023-10-31T01:44:01;96544.13;;;9.88;100.00
76054;BME280;64752;48.870;9.082;2023-10-31T01:46:26;96538.09;;;10.03;100.00
76054;BME280;64752;48.870;9.082;2023-10-31T01:48:53;96536.25;;;10.06;100.00
76054;BME280;64752;48.870;9.082;2023-10-31T01:51:18;96541.69;;;10.01;100.00
76054;BME280;64752;48.870;9.082;2023-10-31T01:53:44;96548.03;;;9.95;100.00
76054;BME280;64752;48.870;9.082;2023-10-31T01:56:09;96545.00;;;10.03;100.00
76054;BME280;64752;48.870;9.082;2023-10-31T01:58:36;96554.09;;;10.10;100.00
76054;BME280;64752;48.870;9.082;2023-10-31T02:01:02;96550.41;;;10.14;100.00
76054;BME280;64752;48.870;9.082;2023-10-31T02:03:29;96553.94;;;10.13;100.00
76054;BME280;64752;48.870;9.082;2023-10-31T02:05:55;96557.34;;;10.14;100.00
76054;BME280;64752;48.870;9.082;2023-10-31T02:08:20;96559.50;;;10.21;100.00
76054;BME280;64752;48.870;9.082;2023-10-31T02:10:46;96563.38;;;10.14;100.00
76054;BME280;64752;48.870;9.082;2023-10-31T02:13:12;96576.66;;;10.08;100.00
76054;BME280;64752;48.870;9.082;2023-10-31T02:15:38;96580.75;;;10.12;100.00
76054;BME280;64752;48.870;9.082;2023-10-31T02:18:04;96573.72;;;10.14;100.00
76054;BME280;64752;48.870;9.082;2023-10-31T02:20:29;96576.66;;;10.08;100.00
76054;BME280;64752;48.870;9.082;2023-10-31T02:22:54;96582.75;;;10.07;100.00
76054;BME280;64752;48.870;9.082;2023-10-31T02:25:20;96583.44;;;10.11;100.00
76054;BME280;64752;48.870;9.082;2023-10-31T02:27:46;96581.94;;;10.07;100.00
76054;BME280;64752;48.870;9.082;2023-10-31T02:30:11;96573.78;;;9.98;100.00
76054;BME280;64752;48.870;9.082;2023-10-31T02:32:37;96572.69;;;10.02;100.00
76054;BME280;64752;48.870;9.082;2023-10-31T02:35:02;96577.84;;;10.02;100.00
76054;BME280;64752;48.870;9.082;2023-10-31T02:37:28;96577.44;;;9.94;100.00
76054;BME280;64752;48.870;9.082;2023-10-31T02:39:53;96589.75;;;9.91;100.00
76054;BME280;64752;48.870;9.082;2023-10-31T02:42:18;96593.81;;;9.95;100.00
76054;BME280;64752;48.870;9.082;2023-10-31T02:44:44;96602.41;;;9.95;100.00
76054;BME280;64752;48.870;9.082;2023-10-31T02:47:09;96600.25;;;10.03;100.00
76054;BME280;64752;48.870;9.082;2023-10-31T02:49:34;96593.31;;;10.04;100.00
76054;BME280;64752;48.870;9.082;2023-10-31T02:52:00;96595.47;;;9.96;100.00
76054;BME280;64752;48.870;9.082;2023-10-31T02:54:25;96595.91;;;9.88;100.00
76054;BME280;64752;48.870;9.082;2023-10-31T02:56:53;96593.00;;;9.78;100.00
76054;BME280;64752;48.870;9.082;2023-10-31T02:59:19;96584.91;;;9.69;100.00
76054;BME280;64752;48.870;9.082;2023-10-31T03:01:44;96591.22;;;9.63;100.00
76054;BME280;64752;48.870;9.082;2023-10-31T03:04:09;96591.66;;;9.55;100.00
76054;BME280;64752;48.870;9.082;2023-10-31T03:06:35;96600.50;;;9.51;100.00
76054;BME280;64752;48.870;9.082;2023-10-31T03:09:00;96611.69;;;9.52;100.00
76054;BME280;64752;48.870;9.082;2023-10-31T03:11:28;96612.44;;;9.54;100.00
76054;BME280;64752;48.870;9.082;2023-10-31T03:13:54;96616.78;;;9.53;100.00
76054;BME280;64752;48.870;9.082;2023-10-31T03:16:21;96619.50;;;9.50;100.00
76054;BME280;64752;48.870;9.082;2023-10-31T03:18:46;96635.91;;;9.51;100.00
76054;BME280;64752;48.870;9.082;2023-10-31T03:21:12;96630.66;;;9.52;100.00
76054;BME280;64752;48.870;9.082;2023-10-31T03:23:37;96626.72;;;9.61;100.00
76054;BME280;64752;48.870;9.082;2023-10-31T03:26:03;96635.81;;;9.68;100.00
76054;BME280;64752;48.870;9.082;2023-10-31T03:28:28;96636.41;;;9.73;100.00
76054;BME280;64752;48.870;9.082;2023-10-31T03:30:54;96632.25;;;9.71;100.00
76054;BME280;64752;48.870;9.082;2023-10-31T03:33:19;96642.41;;;9.74;100.00
76054;BME280;64752;48.870;9.082;2023-10-31T03:35:44;96644.25;;;9.72;100.00
76054;BME280;64752;48.870;9.082;2023-10-31T03:38:10;96645.88;;;9.74;100.00
76054;BME280;64752;48.870;9.082;2023-10-31T03:40:36;96638.31;;;9.70;100.00
76054;BME280;64752;48.870;9.082;2023-10-31T03:43:01;96634.25;;;9.81;100.00
76054;BME280;64752;48.870;9.082;2023-10-31T03:45:26;96641.91;;;9.83;100.00
76054;BME280;64752;48.870;9.082;2023-10-31T03:47:52;96631.47;;;9.84;100.00
76054;BME280;64752;48.870;9.082;2023-10-31T03:50:17;96636.44;;;9.89;100.00
76054;BME280;64752;48.870;9.082;2023-10-31T03:52:42;96642.31;;;10.07;100.00
76054;BME280;64752;48.870;9.082;2023-10-31T03:55:11;96637.50;;;10.17;100.00
76054;BME280;64752;48.870;9.082;2023-10-31T03:57:36;96642.00;;;10.13;100.00
76054;BME280;64752;48.870;9.082;2023-10-31T04:00:02;96645.84;;;10.06;100.00
76054;BME280;64752;48.870;9.082;2023-10-31T04:02:30;96641.78;;;10.02;100.00
76054;BME280;64752;48.870;9.082;2023-10-31T04:04:55;96633.06;;;10.19;100.00
76054;BME280;64752;48.870;9.082;2023-10-31T04:07:20;96643.66;;;10.14;100.00
76054;BME280;64752;48.870;9.082;2023-10-31T04:09:46;96640.84;;;10.19;100.00
76054;BME280;64752;48.870;9.082;2023-10-31T04:12:14;96644.25;;;10.19;100.00
76054;BME280;64752;48.870;9.082;2023-10-31T04:14:39;96646.09;;;10.17;100.00
76054;BME280;64752;48.870;9.082;2023-10-31T04:17:05;96640.41;;;10.11;100.00
76054;BME280;64752;48.870;9.082;2023-10-31T04:19:30;96650.88;;;10.09;100.00
76054;BME280;64752;48.870;9.082;2023-10-31T04:21:55;96647.50;;;10.07;100.00
76054;BME280;64752;48.870;9.082;2023-10-31T04:24:21;96654.28;;;9.94;100.00
76054;BME280;64752;48.870;9.082;2023-10-31T04:26:46;96650.63;;;9.82;100.00
76054;BME280;64752;48.870;9.082;2023-10-31T04:29:12;96659.13;;;9.84;100.00
76054;BME280;64752;48.870;9.082;2023-10-31T04:31:43;96659.38;;;9.79;100.00
76054;BME280;64752;48.870;9.082;2023-10-31T04:34:09;96662.63;;;9.67;100.00
76054;BME280;64752;48.870;9.082;2023-10-31T04:36:34;96667.88;;;9.65;100.00
76054;BME280;64752;48.870;9.082;2023-10-31T04:38:59;96665.63;;;9.59;100.00
76054;BME280;64752;48.870;9.082;2023-10-31T04:41:25;96667.22;;;9.62;100.00
76054;BME280;64752;48.870;9.082;2023-10-31T04:43:53;96669.53;;;9.67;100.00
76054;BME280;64752;48.870;9.082;2023-10-31T04:46:19;96668.03;;;9.62;100.00
76054;BME280;64752;48.870;9.082;2023-10-31T04:48:44;96669.47;;;9.52;100.00
76054;BME280;64752;48.870;9.082;2023-10-31T04:51:09;96676.16;;;9.39;100.00
76054;BME280;64752;48.870;9.082;2023-10-31T04:53:35;96681.53;;;9.36;100.00
76054;BME280;64752;48.870;9.082;2023-10-31T04:56:00;96686.25;;;9.27;100.00
76054;BME280;64752;48.870;9.082;2023-10-31T04:58:26;96684.94;;;9.36;100.00
76054;BME280;64752;48.870;9.082;2023-10-31T05:00:51;96687.91;;;9.29;100.00
76054;BME280;64752;48.870;9.082;2023-10-31T05:03:19;96686.63;;;9.20;100.00
76054;BME280;64752;48.870;9.082;2023-10-31T05:05:44;96678.88;;;9.20;100.00
76054;BME280;64752;48.870;9.082;2023-10-31T05:08:10;96665.59;;;9.10;100.00
76054;BME280;64752;48.870;9.082;2023-10-31T05:10:35;96675.28;;;9.22;100.00
76054;BME280;64752;48.870;9.082;2023-10-31T05:13:01;96677.97;;;9.21;100.00
76054;BME280;64752;48.870;9.082;2023-10-31T05:15:29;96685.81;;;9.19;100.00
76054;BME280;64752;48.870;9.082;2023-10-31T05:17:54;96699.63;;;9.18;100.00
76054;BME280;64752;48.870;9.082;2023-10-31T05:20:20;96710.81;;;9.19;100.00
76054;BME280;64752;48.870;9.082;2023-10-31T05:22:45;96709.09;;;9.19;100.00
76054;BME280;64752;48.870;9.082;2023-10-31T05:25:13;96709.09;;;9.19;100.00
76054;BME280;64752;48.870;9.082;2023-10-31T05:27:38;96701.47;;;9.16;100.00
76054;BME280;64752;48.870;9.082;2023-10-31T05:30:04;96700.38;;;9.20;100.00
76054;BME280;64752;48.870;9.082;2023-10-31T05:32:30;96701.47;;;9.16;100.00
76054;BME280;64752;48.870;9.082;2023-10-31T05:34:56;96700.78;;;9.13;100.00
76054;BME280;64752;48.870;9.082;2023-10-31T05:37:22;96707.72;;;9.12;100.00
76054;BME280;64752;48.870;9.082;2023-10-31T05:39:47;96702.38;;;9.15;100.00
76054;BME280;64752;48.870;9.082;2023-10-31T05:42:12;96703.44;;;9.11;100.00
76054;BME280;64752;48.870;9.082;2023-10-31T05:44:38;96699.34;;;9.07;100.00
76054;BME280;64752;48.870;9.082;2023-10-31T05:47:04;96692.03;;;9.15;100.00
76054;BME280;64752;48.870;9.082;2023-10-31T05:49:30;96698.19;;;9.13;100.00
76054;BME280;64752;48.870;9.082;2023-10-31T05:51:55;96705.19;;;9.11;100.00
76054;BME280;64752;48.870;9.082;2023-10-31T05:54:21;96710.13;;;9.15;100.00
76054;BME280;64752;48.870;9.082;2023-10-31T05:56:46;96710.13;;;9.15;100.00
76054;BME280;64752;48.870;9.082;2023-10-31T05:59:12;96715.84;;;9.22;100.00
76054;BME280;64752;48.870;9.082;2023-10-31T06:01:37;96715.09;;;9.20;100.00
76054;BME280;64752;48.870;9.082;2023-10-31T06:04:02;96722.56;;;9.09;100.00
76054;BME280;64752;48.870;9.082;2023-10-31T06:06:33;96732.75;;;9.12;100.00
76054;BME280;64752;48.870;9.082;2023-10-31T06:08:58;96731.00;;;9.12;100.00
76054;BME280;64752;48.870;9.082;2023-10-31T06:11:24;96740.56;;;9.10;100.00
76054;BME280;64752;48.870;9.082;2023-10-31T06:13:49;96738.44;;;9.18;100.00
76054;BME280;64752;48.870;9.082;2023-10-31T06:16:14;96745.44;;;9.16;100.00
76054;BME280;64752;48.870;9.082;2023-10-31T06:18:40;96746.25;;;9.17;100.00
76054;BME280;64752;48.870;9.082;2023-10-31T06:21:06;96749.84;;;9.14;100.00
76054;BME280;64752;48.870;9.082;2023-10-31T06:23:34;96748.84;;;9.17;100.00
76054;BME280;64752;48.870;9.082;2023-10-31T06:26:02;96756.91;;;9.28;100.00
76054;BME280;64752;48.870;9.082;2023-10-31T06:28:28;96759.13;;;9.36;100.00
76054;BME280;64752;48.870;9.082;2023-10-31T06:30:53;96762.75;;;9.49;100.00
76054;BME280;64752;48.870;9.082;2023-10-31T06:33:18;96750.94;;;9.61;100.00
76054;BME280;64752;48.870;9.082;2023-10-31T06:35:44;96763.09;;;9.76;99.20
76054;BME280;64752;48.870;9.082;2023-10-31T06:38:09;96759.66;;;9.76;98.86
76054;BME280;64752;48.870;9.082;2023-10-31T06:40:34;96761.94;;;9.82;99.06
76054;BME280;64752;48.870;9.082;2023-10-31T06:43:04;96766.19;;;9.83;100.00
76054;BME280;64752;48.870;9.082;2023-10-31T06:45:29;96771.53;;;9.80;100.00
76054;BME280;64752;48.870;9.082;2023-10-31T06:47:54;96775.72;;;9.82;100.00
76054;BME280;64752;48.870;9.082;2023-10-31T06:50:20;96770.22;;;9.89;100.00
76054;BME280;64752;48.870;9.082;2023-10-31T06:52:45;96777.16;;;9.88;100.00
76054;BME280;64752;48.870;9.082;2023-10-31T06:55:10;96781.16;;;9.94;100.00
76054;BME280;64752;48.870;9.082;2023-10-31T06:57:36;96787.28;;;9.93;100.00
76054;BME280;64752;48.870;9.082;2023-10-31T07:00:01;96786.34;;;9.94;100.00
76054;BME280;64752;48.870;9.082;2023-10-31T07:02:28;96794.28;;;9.91;100.00
76054;BME280;64752;48.870;9.082;2023-10-31T07:04:53;96807.25;;;9.91;100.00
76054;BME280;64752;48.870;9.082;2023-10-31T07:07:19;96811.25;;;9.96;100.00
76054;BME280;64752;48.870;9.082;2023-10-31T07:09:44;96813.44;;;10.04;100.00
76054;BME280;64752;48.870;9.082;2023-10-31T07:12:09;96811.16;;;9.98;100.00
76054;BME280;64752;48.870;9.082;2023-10-31T07:14:35;96811.75;;;10.03;100.00
76054;BME280;64752;48.870;9.082;2023-10-31T07:17:00;96823.47;;;10.10;100.00
76054;BME280;64752;48.870;9.082;2023-10-31T07:19:26;96816.63;;;10.09;100.00
76054;BME280;64752;48.870;9.082;2023-10-31T07:21:51;96823.94;;;10.18;100.00
76054;BME280;64752;48.870;9.082;2023-10-31T07:24:16;96824.84;;;10.17;100.00
76054;BME280;64752;48.870;9.082;2023-10-31T07:26:42;96824.59;;;10.22;100.00
76054;BME280;64752;48.870;9.082;2023-10-31T07:29:07;96828.41;;;10.32;100.00
76054;BME280;64752;48.870;9.082;2023-10-31T07:31:33;96830.19;;;10.30;100.00
76054;BME280;64752;48.870;9.082;2023-10-31T07:34:03;96840.25;;;10.36;100.00
76054;BME280;64752;48.870;9.082;2023-10-31T07:36:28;96841.88;;;10.39;100.00
76054;BME280;64752;48.870;9.082;2023-10-31T07:38:54;96842.19;;;10.33;100.00
76054;BME280;64752;48.870;9.082;2023-10-31T07:41:19;96848.03;;;10.36;100.00
76054;BME280;64752;48.870;9.082;2023-10-31T07:43:44;96852.25;;;10.55;100.00
76054;BME280;64752;48.870;9.082;2023-10-31T07:46:10;96853.03;;;10.57;100.00
76054;BME280;64752;48.870;9.082;2023-10-31T07:48:35;96855.13;;;10.66;100.00
76054;BME280;64752;48.870;9.082;2023-10-31T07:51:00;96857.09;;;10.77;100.00
76054;BME280;64752;48.870;9.082;2023-10-31T07:53:26;96858.88;;;10.92;100.00
76054;BME280;64752;48.870;9.082;2023-10-31T07:55:51;96857.56;;;11.15;99.75
76054;BME280;64752;48.870;9.082;2023-10-31T07:58:17;96862.22;;;11.10;99.49
76054;BME280;64752;48.870;9.082;2023-10-31T08:00:42;96863.78;;;11.29;99.39
76054;BME280;64752;48.870;9.082;2023-10-31T08:03:07;96862.28;;;11.09;98.57
76054;BME280;64752;48.870;9.082;2023-10-31T08:05:32;96859.03;;;11.05;100.00
76054;BME280;64752;48.870;9.082;2023-10-31T08:07:58;96860.59;;;11.24;99.72
76054;BME280;64752;48.870;9.082;2023-10-31T08:10:23;96868.06;;;11.14;99.76
76054;BME280;64752;48.870;9.082;2023-10-31T08:12:49;96862.59;;;11.18;100.00
76054;BME280;64752;48.870;9.082;2023-10-31T08:15:14;96866.63;;;11.24;100.00
76054;BME280;64752;48.870;9.082;2023-10-31T08:17:41;96862.59;;;11.18;100.00
76054;BME280;64752;48.870;9.082;2023-10-31T08:20:06;96870.19;;;11.37;99.40
76054;BME280;64752;48.870;9.082;2023-10-31T08:22:32;96873.56;;;11.40;98.49
76054;BME280;64752;48.870;9.082;2023-10-31T08:24:57;96879.44;;;11.57;97.46
76054;BME280;64752;48.870;9.082;2023-10-31T08:27:22;96887.22;;;11.88;97.84
76054;BME280;64752;48.870;9.082;2023-10-31T08:29:48;96879.94;;;11.64;98.16
76054;BME280;64752;48.870;9.082;2023-10-31T08:32:13;96893.78;;;12.09;95.46
76054;BME280;64752;48.870;9.082;2023-10-31T08:34:38;96899.28;;;12.33;93.49
76054;BME280;64752;48.870;9.082;2023-10-31T08:37:04;96896.56;;;12.78;90.09
76054;BME280;64752;48.870;9.082;2023-10-31T08:39:29;96903.63;;;12.62;91.68
76054;BME280;64752;48.870;9.082;2023-10-31T08:41:57;96902.00;;;12.46;90.67
76054;BME280;64752;48.870;9.082;2023-10-31T08:44:23;96910.63;;;12.61;90.93
76054;BME280;64752;48.870;9.082;2023-10-31T08:46:48;96908.78;;;13.05;88.47
76054;BME280;64752;48.870;9.082;2023-10-31T08:49:15;96920.22;;;13.02;87.76
76054;BME280;64752;48.870;9.082;2023-10-31T08:51:41;96911.75;;;13.13;86.57
76054;BME280;64752;48.870;9.082;2023-10-31T08:54:06;96916.34;;;13.37;86.66
76054;BME280;64752;48.870;9.082;2023-10-31T08:56:32;96912.16;;;13.61;84.03
76054;BME280;64752;48.870;9.082;2023-10-31T08:58:57;96911.53;;;14.23;84.24
76054;BME280;64752;48.870;9.082;2023-10-31T09:01:23;96913.09;;;15.14;77.58
76054;BME280;64752;48.870;9.082;2023-10-31T09:03:48;96910.34;;;15.29;74.06
76054;BME280;64752;48.870;9.082;2023-10-31T09:06:14;96920.88;;;15.03;75.97
76054;BME280;64752;48.870;9.082;2023-10-31T09:08:40;96917.06;;;14.70;77.78
76054;BME280;64752;48.870;9.082;2023-10-31T09:11:05;96917.81;;;14.34;76.66
76054;BME280;64752;48.870;9.082;2023-10-31T09:13:32;96916.13;;;14.20;79.44
76054;BME280;64752;48.870;9.082;2023-10-31T09:15:58;96912.75;;;13.92;80.56
76054;BME280;64752;48.870;9.082;2023-10-31T09:18:23;96914.25;;;14.48;78.28
76054;BME280;64752;48.870;9.082;2023-10-31T09:20:49;96916.22;;;14.44;75.54
76054;BME280;64752;48.870;9.082;2023-10-31T09:23:15;96911.34;;;14.14;79.75
76054;BME280;64752;48.870;9.082;2023-10-31T09:25:45;96918.44;;;14.50;78.75
76054;BME280;64752;48.870;9.082;2023-10-31T09:28:11;96914.97;;;14.75;75.46
76054;BME280;64752;48.870;9.082;2023-10-31T09:30:36;96919.44;;;14.99;75.23
76054;BME280;64752;48.870;9.082;2023-10-31T09:33:02;96922.59;;;14.78;75.66
76054;BME280;64752;48.870;9.082;2023-10-31T09:35:27;96921.63;;;14.92;74.91
76054;BME280;64752;48.870;9.082;2023-10-31T09:37:54;96916.03;;;15.22;72.97
76054;BME280;64752;48.870;9.082;2023-10-31T09:40:20;96928.00;;;15.01;74.68
76054;BME280;64752;48.870;9.082;2023-10-31T09:42:47;96930.66;;;15.12;70.75
76054;BME280;64752;48.870;9.082;2023-10-31T09:45:20;96927.06;;;15.02;73.68
76054;BME280;64752;48.870;9.082;2023-10-31T09:47:45;96912.84;;;15.30;70.70
76054;BME280;64752;48.870;9.082;2023-10-31T09:50:11;96923.25;;;15.67;70.47
76054;BME280;64752;48.870;9.082;2023-10-31T09:52:37;96923.03;;;14.46;74.97
76054;BME280;64752;48.870;9.082;2023-10-31T09:55:03;96928.66;;;14.27;78.08
76054;BME280;64752;48.870;9.082;2023-10-31T09:57:29;96922.25;;;13.80;77.84
76054;BME280;64752;48.870;9.082;2023-10-31T09:59:55;96929.25;;;13.65;77.17
76054;BME280;64752;48.870;9.082;2023-10-31T10:02:20;96918.09;;;14.03;77.49
76054;BME280;64752;48.870;9.082;2023-10-31T10:04:47;96915.50;;;14.29;75.04
76054;BME280;64752;48.870;9.082;2023-10-31T10:07:19;96912.03;;;13.90;78.60
76054;BME280;64752;48.870;9.082;2023-10-31T10:09:45;96907.94;;;13.73;78.05
76054;BME280;64752;48.870;9.082;2023-10-31T10:12:13;96907.00;;;13.74;77.35
76054;BME280;64752;48.870;9.082;2023-10-31T10:14:40;96905.16;;;14.02;77.60
76054;BME280;64752;48.870;9.082;2023-10-31T10:17:22;96913.59;;;14.05;77.54
76054;BME280;64752;48.870;9.082;2023-10-31T10:19:56;96912.06;;;14.03;77.19
76054;BME280;64752;48.870;9.082;2023-10-31T10:22:29;96904.53;;;14.24;77.35
76054;BME280;64752;48.870;9.082;2023-10-31T10:24:54;96913.94;;;14.26;74.64
76054;BME280;64752;48.870;9.082;2023-10-31T10:27:20;96916.41;;;13.90;76.97
76054;BME280;64752;48.870;9.082;2023-10-31T10:29:45;96915.91;;;14.10;77.31
76054;BME280;64752;48.870;9.082;2023-10-31T10:32:10;96918.00;;;14.31;74.26
76054;BME280;64752;48.870;9.082;2023-10-31T10:34:36;96922.09;;;14.60;73.15
76054;BME280;64752;48.870;9.082;2023-10-31T10:37:04;96926.38;;;14.49;73.85
76054;BME280;64752;48.870;9.082;2023-10-31T10:39:32;96930.97;;;14.71;72.22
76054;BME280;64752;48.870;9.082;2023-10-31T10:42:00;96932.09;;;14.41;73.71
76054;BME280;64752;48.870;9.082;2023-10-31T10:44:33;96934.38;;;14.33;73.68
76054;BME280;64752;48.870;9.082;2023-10-31T10:47:02;96930.94;;;14.19;75.18
76054;BME280;64752;48.870;9.082;2023-10-31T10:49:28;96930.94;;;14.32;73.87
76054;BME280;64752;48.870;9.082;2023-10-31T10:52:06;96935.03;;;14.75;75.12
76054;BME280;64752;48.870;9.082;2023-10-31T10:59:51;96929.19;;;14.84;73.08
76054;BME280;64752;48.870;9.082;2023-10-31T11:02:20;96938.41;;;15.14;70.91
76054;BME280;64752;48.870;9.082;2023-10-31T11:04:47;96926.66;;;14.82;70.68
76054;BME280;64752;48.870;9.082;2023-10-31T11:07:13;96922.91;;;14.87;71.54
76054;BME280;64752;48.870;9.082;2023-10-31T11:09:39;96930.63;;;14.75;71.74
76054;BME280;64752;48.870;9.082;2023-10-31T11:12:06;96926.03;;;14.40;72.78
76054;BME280;64752;48.870;9.082;2023-10-31T11:14:32;96932.69;;;14.32;73.88
76054;BME280;64752;48.870;9.082;2023-10-31T11:17:01;96932.59;;;14.20;76.49
76054;BME280;64752;48.870;9.082;2023-10-31T11:19:30;96934.19;;;14.49;74.25
76054;BME280;64752;48.870;9.082;2023-10-31T11:22:00;96931.25;;;14.79;73.64
76054;BME280;64752;48.870;9.082;2023-10-31T11:24:37;96940.75;;;14.54;74.60
76054;BME280;64752;48.870;9.082;2023-10-31T11:27:04;96945.44;;;14.36;74.08
76054;BME280;64752;48.870;9.082;2023-10-31T11:29:31;96940.97;;;14.38;74.50
76054;BME280;64752;48.870;9.082;2023-10-31T11:31:57;96943.75;;;14.22;75.40
76054;BME280;64752;48.870;9.082;2023-10-31T11:34:23;96946.72;;;14.69;74.19
76054;BME280;64752;48.870;9.082;2023-10-31T11:36:51;96952.22;;;14.90;73.61
76054;BME280;64752;48.870;9.082;2023-10-31T11:39:21;96950.63;;;15.50;71.10
76054;BME280;64752;48.870;9.082;2023-10-31T11:41:55;96957.13;;;15.08;74.00
76054;BME280;64752;48.870;9.082;2023-10-31T11:44:26;96957.03;;;14.96;74.13
76054;BME280;64752;48.870;9.082;2023-10-31T11:46:52;96957.47;;;14.77;71.58
76054;BME280;64752;48.870;9.082;2023-10-31T11:49:35;96957.81;;;14.07;76.08
76054;BME280;64752;48.870;9.082;2023-10-31T11:52:16;96959.59;;;14.06;75.60
76054;BME280;64752;48.870;9.082;2023-10-31T11:54:43;96970.63;;;13.97;77.02
76054;BME280;64752;48.870;9.082;2023-10-31T11:57:08;96967.00;;;14.13;75.68
76054;BME280;64752;48.870;9.082;2023-10-31T11:59:37;96968.25;;;13.67;77.24
76054;BME280;64752;48.870;9.082;2023-10-31T12:02:14;96966.81;;;13.76;76.98
76054;BME280;64752;48.870;9.082;2023-10-31T12:04:39;96970.09;;;13.65;77.83
76054;BME280;64752;48.870;9.082;2023-10-31T12:07:05;96970.66;;;13.70;76.31
76054;BME280;64752;48.870;9.082;2023-10-31T12:09:30;96968.78;;;13.72;75.34
76054;BME280;64752;48.870;9.082;2023-10-31T12:11:56;96965.06;;;14.55;73.35
76054;BME280;64752;48.870;9.082;2023-10-31T12:14:21;96969.06;;;14.73;72.38
76054;BME280;64752;48.870;9.082;2023-10-31T12:16:46;96964.94;;;15.08;71.25
76054;BME280;64752;48.870;9.082;2023-10-31T12:19:12;96967.06;;;14.77;71.71
76054;BME280;64752;48.870;9.082;2023-10-31T12:24:06;96975.44;;;15.32;70.41
76054;BME280;64752;48.870;9.082;2023-10-31T12:26:33;96978.31;;;15.03;70.46
76054;BME280;64752;48.870;9.082;2023-10-31T12:29:09;96983.25;;;14.82;71.83
76054;BME280;64752;48.870;9.082;2023-10-31T12:31:35;96984.53;;;14.63;71.30
76054;BME280;64752;48.870;9.082;2023-10-31T12:34:06;96983.13;;;14.45;73.29
76054;BME280;64752;48.870;9.082;2023-10-31T12:36:32;96977.03;;;14.32;72.85
76054;BME280;64752;48.870;9.082;2023-10-31T12:38:59;96978.94;;;14.42;74.20
76054;BME280;64752;48.870;9.082;2023-10-31T12:41:24;96989.47;;;14.54;74.83
76054;BME280;64752;48.870;9.082;2023-10-31T12:43:50;96989.34;;;14.30;75.73
76054;BME280;64752;48.870;9.082;2023-10-31T12:46:29;96984.56;;;14.23;76.61
76054;BME280;64752;48.870;9.082;2023-10-31T12:48:56;96993.19;;;14.11;78.57
76054;BME280;64752;48.870;9.082;2023-10-31T12:51:21;96994.97;;;14.11;77.91
76054;BME280;64752;48.870;9.082;2023-10-31T12:53:51;96995.50;;;14.16;78.65
76054;BME280;64752;48.870;9.082;2023-10-31T12:56:38;96996.88;;;13.94;81.57
76054;BME280;64752;48.870;9.082;2023-10-31T12:59:05;96994.44;;;13.78;84.48
76054;BME280;64752;48.870;9.082;2023-10-31T13:01:33;96995.47;;;13.76;84.06